sensor_id;sensor_type;location;lat;lon;timestamp;temperature;humidity
22035;DHT22;11181;51.002;4.356;2022-12-20T00:00:51;12.90;99.90
22035;DHT22;11181;51.002;4.356;2022-12-20T00:03:19;13.00;99.90
22035;DHT22;11181;51.002;4.356;2022-12-20T00:05:46;13.00;99.90
22035;DHT22;11181;51.002;4.356;2022-12-20T00:08:13;12.90;99.90
22035;DHT22;11181;51.002;4.356;2022-12-20T00:10:43;12.90;99.90
22035;DHT22;11181;51.002;4.356;2022-12-20T00:13:12;12.90;99.90
22035;DHT22;11181;51.002;4.356;2022-12-20T00:15:39;12.90;99.90
22035;DHT22;11181;51.002;4.356;2022-12-20T00:18:06;12.80;99.90
22035;DHT22;11181;51.002;4.356;2022-12-20T00:20:33;12.70;99.90
22035;DHT22;11181;51.002;4.356;2022-12-20T00:23:01;12.80;99.90
22035;DHT22;11181;51.002;4.356;2022-12-20T00:25:28;12.70;99.90
22035;DHT22;11181;51.002;4.356;2022-12-20T00:27:56;12.70;99.90
22035;DHT22;11181;51.002;4.356;2022-12-20T00:30:23;12.80;99.90
22035;DHT22;11181;51.002;4.356;2022-12-20T00:32:50;12.70;99.90
22035;DHT22;11181;51.002;4.356;2022-12-20T00:35:17;12.60;99.90
22035;DHT22;11181;51.002;4.356;2022-12-20T00:37:44;12.50;99.90
22035;DHT22;11181;51.002;4.356;2022-12-20T00:40:11;12.50;99.90
22035;DHT22;11181;51.002;4.356;2022-12-20T00:42:38;12.40;99.90
22035;DHT22;11181;51.002;4.356;2022-12-20T00:45:08;12.30;99.90
22035;DHT22;11181;51.002;4.356;2022-12-20T00:47:35;12.20;99.90
22035;DHT22;11181;51.002;4.356;2022-12-20T00:50:02;12.20;99.90
22035;DHT22;11181;51.002;4.356;2022-12-20T00:52:29;12.20;99.90
22035;DHT22;11181;51.002;4.356;2022-12-20T00:54:56;12.30;99.90
22035;DHT22;11181;51.002;4.356;2022-12-20T00:57:23;12.30;99.90
22035;DHT22;11181;51.002;4.356;2022-12-20T00:59:50;12.30;99.90
22035;DHT22;11181;51.002;4.356;2022-12-20T01:02:18;12.40;99.90
22035;DHT22;11181;51.002;4.356;2022-12-20T01:04:47;12.40;99.90
22035;DHT22;11181;51.002;4.356;2022-12-20T01:07:14;12.50;99.90
22035;DHT22;11181;51.002;4.356;2022-12-20T01:09:41;12.50;99.90
22035;DHT22;11181;51.002;4.356;2022-12-20T01:12:08;12.50;99.90
22035;DHT22;11181;51.002;4.356;2022-12-20T01:14:36;12.50;99.90
22035;DHT22;11181;51.002;4.356;2022-12-20T01:17:03;12.50;99.90
22035;DHT22;11181;51.002;4.356;2022-12-20T01:19:31;12.60;99.90
22035;DHT22;11181;51.002;4.356;2022-12-20T01:21:58;12.60;99.90
22035;DHT22;11181;51.002;4.356;2022-12-20T01:24:25;12.50;99.90
22035;DHT22;11181;51.002;4.356;2022-12-20T01:26:52;12.60;99.90
22035;DHT22;11181;51.002;4.356;2022-12-20T01:29:19;12.70;99.90
22035;DHT22;11181;51.002;4.356;2022-12-20T01:31:46;12.60;99.90
22035;DHT22;11181;51.002;4.356;2022-12-20T01:34:13;12.60;99.90
22035;DHT22;11181;51.002;4.356;2022-12-20T01:36:41;12.60;99.90
22035;DHT22;11181;51.002;4.356;2022-12-20T01:39:11;12.60;99.90
22035;DHT22;11181;51.002;4.356;2022-12-20T01:41:39;12.60;99.90
22035;DHT22;11181;51.002;4.356;2022-12-20T01:47:12;12.70;99.90
22035;DHT22;11181;51.002;4.356;2022-12-20T01:49:43;12.70;99.90
22035;DHT22;11181;51.002;4.356;2022-12-20T01:52:15;12.70;99.90
22035;DHT22;11181;51.002;4.356;2022-12-20T01:54:45;12.60;99.90
22035;DHT22;11181;51.002;4.356;2022-12-20T01:57:15;12.70;99.90
22035;DHT22;11181;51.002;4.356;2022-12-20T01:59:45;12.80;99.90
22035;DHT22;11181;51.002;4.356;2022-12-20T02:02:14;12.80;99.90
22035;DHT22;11181;51.002;4.356;2022-12-20T02:04:42;12.80;99.90
22035;DHT22;11181;51.002;4.356;2022-12-20T02:07:09;12.80;99.90
22035;DHT22;11181;51.002;4.356;2022-12-20T02:09:40;12.80;99.90
22035;DHT22;11181;51.002;4.356;2022-12-20T02:12:09;12.70;99.90
22035;DHT22;11181;51.002;4.356;2022-12-20T02:14:59;12.70;99.90
22035;DHT22;11181;51.002;4.356;2022-12-20T02:17:38;12.70;99.90
22035;DHT22;11181;51.002;4.356;2022-12-20T02:20:27;12.70;99.90
22035;DHT22;11181;51.002;4.356;2022-12-20T02:23:15;12.70;99.90
22035;DHT22;11181;51.002;4.356;2022-12-20T02:26:01;12.70;99.90
22035;DHT22;11181;51.002;4.356;2022-12-20T02:28:46;12.70;99.90
22035;DHT22;11181;51.002;4.356;2022-12-20T02:31:25;12.60;99.90
22035;DHT22;11181;51.002;4.356;2022-12-20T02:33:54;12.60;99.90
22035;DHT22;11181;51.002;4.356;2022-12-20T02:36:22;12.70;99.90
22035;DHT22;11181;51.002;4.356;2022-12-20T02:38:50;12.70;99.90
22035;DHT22;11181;51.002;4.356;2022-12-20T02:41:20;12.70;99.90
22035;DHT22;11181;51.002;4.356;2022-12-20T02:44:02;12.70;99.90
22035;DHT22;11181;51.002;4.356;2022-12-20T02:46:50;12.80;99.90
22035;DHT22;11181;51.002;4.356;2022-12-20T02:49:19;12.90;99.90
22035;DHT22;11181;51.002;4.356;2022-12-20T02:51:51;12.90;99.90
22035;DHT22;11181;51.002;4.356;2022-12-20T02:54:20;12.80;99.90
22035;DHT22;11181;51.002;4.356;2022-12-20T02:56:50;12.80;99.90
22035;DHT22;11181;51.002;4.356;2022-12-20T02:59:21;12.80;99.90
22035;DHT22;11181;51.002;4.356;2022-12-20T03:01:52;12.90;99.90
22035;DHT22;11181;51.002;4.356;2022-12-20T03:04:22;12.90;99.90
22035;DHT22;11181;51.002;4.356;2022-12-20T03:06:58;12.90;99.90
22035;DHT22;11181;51.002;4.356;2022-12-20T03:09:25;12.90;99.90
22035;DHT22;11181;51.002;4.356;2022-12-20T03:11:52;13.00;99.90
22035;DHT22;11181;51.002;4.356;2022-12-20T03:14:20;12.80;99.90
22035;DHT22;11181;51.002;4.356;2022-12-20T03:16:47;12.80;99.90
22035;DHT22;11181;51.002;4.356;2022-12-20T03:19:15;12.90;99.90
22035;DHT22;11181;51.002;4.356;2022-12-20T03:21:42;13.00;99.90
22035;DHT22;11181;51.002;4.356;2022-12-20T03:24:09;13.00;99.90
22035;DHT22;11181;51.002;4.356;2022-12-20T03:26:38;13.00;99.90
22035;DHT22;11181;51.002;4.356;2022-12-20T03:29:05;12.80;99.90
22035;DHT22;11181;51.002;4.356;2022-12-20T03:31:32;12.90;99.90
22035;DHT22;11181;51.002;4.356;2022-12-20T03:34:00;12.90;99.90
22035;DHT22;11181;51.002;4.356;2022-12-20T03:36:28;12.90;99.90
22035;DHT22;11181;51.002;4.356;2022-12-20T03:38:55;12.90;99.90
22035;DHT22;11181;51.002;4.356;2022-12-20T03:41:23;13.00;99.90
22035;DHT22;11181;51.002;4.356;2022-12-20T03:43:50;13.00;99.90
22035;DHT22;11181;51.002;4.356;2022-12-20T03:46:17;13.00;99.90
22035;DHT22;11181;51.002;4.356;2022-12-20T03:48:44;13.10;99.90
22035;DHT22;11181;51.002;4.356;2022-12-20T03:51:10;13.10;99.90
22035;DHT22;11181;51.002;4.356;2022-12-20T03:53:39;13.10;99.90
22035;DHT22;11181;51.002;4.356;2022-12-20T03:56:06;13.10;99.90
22035;DHT22;11181;51.002;4.356;2022-12-20T03:58:33;13.00;99.90
22035;DHT22;11181;51.002;4.356;2022-12-20T04:01:00;13.00;99.90
22035;DHT22;11181;51.002;4.356;2022-12-20T04:03:27;13.00;99.90
22035;DHT22;11181;51.002;4.356;2022-12-20T04:05:54;13.00;99.90
22035;DHT22;11181;51.002;4.356;2022-12-20T04:08:21;13.00;99.90
22035;DHT22;11181;51.002;4.356;2022-12-20T04:10:49;12.90;99.90
22035;DHT22;11181;51.002;4.356;2022-12-20T04:13:33;12.90;99.90
22035;DHT22;11181;51.002;4.356;2022-12-20T04:16:00;12.80;99.90
22035;DHT22;11181;51.002;4.356;2022-12-20T04:18:27;12.80;99.90
22035;DHT22;11181;51.002;4.356;2022-12-20T04:20:54;12.70;99.90
22035;DHT22;11181;51.002;4.356;2022-12-20T04:23:21;12.80;99.90
22035;DHT22;11181;51.002;4.356;2022-12-20T04:25:49;12.80;99.90
22035;DHT22;11181;51.002;4.356;2022-12-20T04:28:16;12.90;99.90
22035;DHT22;11181;51.002;4.356;2022-12-20T04:30:43;13.00;99.90
22035;DHT22;11181;51.002;4.356;2022-12-20T04:33:10;12.90;99.90
22035;DHT22;11181;51.002;4.356;2022-12-20T04:35:37;12.80;99.90
22035;DHT22;11181;51.002;4.356;2022-12-20T04:38:04;12.80;99.90
22035;DHT22;11181;51.002;4.356;2022-12-20T04:40:31;12.80;99.90
22035;DHT22;11181;51.002;4.356;2022-12-20T04:42:59;12.80;99.90
22035;DHT22;11181;51.002;4.356;2022-12-20T04:45:26;12.90;99.90
22035;DHT22;11181;51.002;4.356;2022-12-20T04:47:53;12.90;99.90
22035;DHT22;11181;51.002;4.356;2022-12-20T04:50:19;12.90;99.90
22035;DHT22;11181;51.002;4.356;2022-12-20T04:52:46;12.90;99.90
22035;DHT22;11181;51.002;4.356;2022-12-20T04:55:35;12.90;99.90
22035;DHT22;11181;51.002;4.356;2022-12-20T04:58:04;12.90;99.90
22035;DHT22;11181;51.002;4.356;2022-12-20T05:00:31;12.90;99.90
22035;DHT22;11181;51.002;4.356;2022-12-20T05:02:58;12.80;99.90
22035;DHT22;11181;51.002;4.356;2022-12-20T05:05:26;12.80;99.90
22035;DHT22;11181;51.002;4.356;2022-12-20T05:07:53;12.80;99.90
22035;DHT22;11181;51.002;4.356;2022-12-20T05:10:20;12.80;99.90
22035;DHT22;11181;51.002;4.356;2022-12-20T05:12:47;12.90;99.90
22035;DHT22;11181;51.002;4.356;2022-12-20T05:15:15;12.90;99.90
22035;DHT22;11181;51.002;4.356;2022-12-20T05:17:42;12.90;99.90
22035;DHT22;11181;51.002;4.356;2022-12-20T05:20:10;12.90;99.90
22035;DHT22;11181;51.002;4.356;2022-12-20T05:22:37;13.00;99.90
22035;DHT22;11181;51.002;4.356;2022-12-20T05:25:21;12.90;99.90
22035;DHT22;11181;51.002;4.356;2022-12-20T05:28:06;13.00;99.90
22035;DHT22;11181;51.002;4.356;2022-12-20T05:30:34;13.00;99.90
22035;DHT22;11181;51.002;4.356;2022-12-20T05:33:01;13.00;99.90
22035;DHT22;11181;51.002;4.356;2022-12-20T05:35:28;12.90;99.90
22035;DHT22;11181;51.002;4.356;2022-12-20T05:37:55;12.90;99.90
22035;DHT22;11181;51.002;4.356;2022-12-20T05:40:22;12.90;99.90
22035;DHT22;11181;51.002;4.356;2022-12-20T05:42:48;12.80;99.90
22035;DHT22;11181;51.002;4.356;2022-12-20T05:45:15;12.90;99.90
22035;DHT22;11181;51.002;4.356;2022-12-20T05:47:44;12.80;99.90
22035;DHT22;11181;51.002;4.356;2022-12-20T05:50:11;12.90;99.90
22035;DHT22;11181;51.002;4.356;2022-12-20T05:52:38;12.90;99.90
22035;DHT22;11181;51.002;4.356;2022-12-20T05:55:05;12.90;99.90
22035;DHT22;11181;51.002;4.356;2022-12-20T05:57:32;12.80;99.90
22035;DHT22;11181;51.002;4.356;2022-12-20T05:59:59;12.80;99.90
22035;DHT22;11181;51.002;4.356;2022-12-20T06:02:26;12.80;99.90
22035;DHT22;11181;51.002;4.356;2022-12-20T06:04:54;12.90;99.90
22035;DHT22;11181;51.002;4.356;2022-12-20T06:07:22;12.90;99.90
22035;DHT22;11181;51.002;4.356;2022-12-20T06:09:49;12.90;99.90
22035;DHT22;11181;51.002;4.356;2022-12-20T06:12:16;12.90;99.90
22035;DHT22;11181;51.002;4.356;2022-12-20T06:14:43;12.90;99.90
22035;DHT22;11181;51.002;4.356;2022-12-20T06:17:10;13.00;99.90
22035;DHT22;11181;51.002;4.356;2022-12-20T06:19:37;13.00;99.90
22035;DHT22;11181;51.002;4.356;2022-12-20T06:22:07;13.10;99.90
22035;DHT22;11181;51.002;4.356;2022-12-20T06:24:34;13.10;99.90
22035;DHT22;11181;51.002;4.356;2022-12-20T06:27:02;13.10;99.90
22035;DHT22;11181;51.002;4.356;2022-12-20T06:29:29;13.20;99.90
22035;DHT22;11181;51.002;4.356;2022-12-20T06:31:56;13.10;99.90
22035;DHT22;11181;51.002;4.356;2022-12-20T06:34:23;13.10;99.90
22035;DHT22;11181;51.002;4.356;2022-12-20T06:36:50;13.10;99.90
22035;DHT22;11181;51.002;4.356;2022-12-20T06:39:18;13.10;99.90
22035;DHT22;11181;51.002;4.356;2022-12-20T06:41:45;13.10;99.90
22035;DHT22;11181;51.002;4.356;2022-12-20T06:44:12;13.10;99.90
22035;DHT22;11181;51.002;4.356;2022-12-20T06:46:38;13.10;99.90
22035;DHT22;11181;51.002;4.356;2022-12-20T06:49:05;13.20;99.90
22035;DHT22;11181;51.002;4.356;2022-12-20T06:51:32;13.20;99.90
22035;DHT22;11181;51.002;4.356;2022-12-20T06:53:59;13.20;99.90
22035;DHT22;11181;51.002;4.356;2022-12-20T06:56:27;13.20;99.90
22035;DHT22;11181;51.002;4.356;2022-12-20T06:58:54;13.20;99.90
22035;DHT22;11181;51.002;4.356;2022-12-20T07:01:21;13.20;99.90
22035;DHT22;11181;51.002;4.356;2022-12-20T07:03:48;13.10;99.90
22035;DHT22;11181;51.002;4.356;2022-12-20T07:06:15;13.10;99.90
22035;DHT22;11181;51.002;4.356;2022-12-20T07:08:42;13.10;99.90
22035;DHT22;11181;51.002;4.356;2022-12-20T07:11:09;13.00;99.90
22035;DHT22;11181;51.002;4.356;2022-12-20T07:13:37;13.00;99.90
22035;DHT22;11181;51.002;4.356;2022-12-20T07:16:05;13.00;99.90
22035;DHT22;11181;51.002;4.356;2022-12-20T07:18:32;13.00;99.90
22035;DHT22;11181;51.002;4.356;2022-12-20T07:21:00;13.00;99.90
22035;DHT22;11181;51.002;4.356;2022-12-20T07:23:27;12.90;99.90
22035;DHT22;11181;51.002;4.356;2022-12-20T07:25:55;12.90;99.90
22035;DHT22;11181;51.002;4.356;2022-12-20T07:28:22;12.80;99.90
22035;DHT22;11181;51.002;4.356;2022-12-20T07:30:51;12.60;99.90
22035;DHT22;11181;51.002;4.356;2022-12-20T07:33:18;12.50;99.90
22035;DHT22;11181;51.002;4.356;2022-12-20T07:35:45;12.50;99.90
22035;DHT22;11181;51.002;4.356;2022-12-20T07:38:12;12.30;99.90
22035;DHT22;11181;51.002;4.356;2022-12-20T07:40:39;12.20;99.90
22035;DHT22;11181;51.002;4.356;2022-12-20T07:43:07;12.10;99.90
22035;DHT22;11181;51.002;4.356;2022-12-20T07:45:34;12.00;99.90
22035;DHT22;11181;51.002;4.356;2022-12-20T07:48:03;12.00;99.90
22035;DHT22;11181;51.002;4.356;2022-12-20T07:50:31;11.90;99.90
22035;DHT22;11181;51.002;4.356;2022-12-20T07:52:59;11.90;99.90
22035;DHT22;11181;51.002;4.356;2022-12-20T07:55:26;11.80;99.90
22035;DHT22;11181;51.002;4.356;2022-12-20T07:57:57;11.70;99.90
22035;DHT22;11181;51.002;4.356;2022-12-20T08:00:27;11.80;99.90
22035;DHT22;11181;51.002;4.356;2022-12-20T08:03:00;11.80;99.90
22035;DHT22;11181;51.002;4.356;2022-12-20T08:05:29;11.80;99.90
22035;DHT22;11181;51.002;4.356;2022-12-20T08:07:58;11.70;99.90
22035;DHT22;11181;51.002;4.356;2022-12-20T08:10:26;11.60;99.90
22035;DHT22;11181;51.002;4.356;2022-12-20T08:12:54;11.60;99.90
22035;DHT22;11181;51.002;4.356;2022-12-20T08:15:21;11.60;99.90
22035;DHT22;11181;51.002;4.356;2022-12-20T08:17:48;11.60;99.90
22035;DHT22;11181;51.002;4.356;2022-12-20T08:20:16;11.60;99.90
22035;DHT22;11181;51.002;4.356;2022-12-20T08:22:44;11.60;99.90
22035;DHT22;11181;51.002;4.356;2022-12-20T08:25:11;11.60;99.90
22035;DHT22;11181;51.002;4.356;2022-12-20T08:27:38;11.60;99.90
22035;DHT22;11181;51.002;4.356;2022-12-20T08:30:06;11.60;99.90
22035;DHT22;11181;51.002;4.356;2022-12-20T08:32:35;11.50;99.90
22035;DHT22;11181;51.002;4.356;2022-12-20T08:35:02;11.50;99.90
22035;DHT22;11181;51.002;4.356;2022-12-20T08:37:29;11.60;99.90
22035;DHT22;11181;51.002;4.356;2022-12-20T08:39:57;11.60;99.90
22035;DHT22;11181;51.002;4.356;2022-12-20T08:42:25;11.60;99.90
22035;DHT22;11181;51.002;4.356;2022-12-20T08:44:52;11.60;99.90
22035;DHT22;11181;51.002;4.356;2022-12-20T08:47:19;11.60;99.90
22035;DHT22;11181;51.002;4.356;2022-12-20T08:49:46;11.60;99.90
22035;DHT22;11181;51.002;4.356;2022-12-20T08:52:13;11.70;99.90
22035;DHT22;11181;51.002;4.356;2022-12-20T08:54:39;11.70;99.90
22035;DHT22;11181;51.002;4.356;2022-12-20T08:57:08;11.80;99.90
22035;DHT22;11181;51.002;4.356;2022-12-20T08:59:35;11.90;99.90
22035;DHT22;11181;51.002;4.356;2022-12-20T09:02:02;11.80;99.90
22035;DHT22;11181;51.002;4.356;2022-12-20T09:04:29;11.90;99.90
22035;DHT22;11181;51.002;4.356;2022-12-20T09:06:56;11.90;99.90
22035;DHT22;11181;51.002;4.356;2022-12-20T09:09:23;11.90;99.90
22035;DHT22;11181;51.002;4.356;2022-12-20T09:11:49;11.90;99.90
22035;DHT22;11181;51.002;4.356;2022-12-20T09:14:18;11.90;99.90
22035;DHT22;11181;51.002;4.356;2022-12-20T09:16:45;11.90;99.90
22035;DHT22;11181;51.002;4.356;2022-12-20T09:19:13;11.80;99.90
22035;DHT22;11181;51.002;4.356;2022-12-20T09:21:40;11.80;99.90
22035;DHT22;11181;51.002;4.356;2022-12-20T09:24:08;11.70;99.90
22035;DHT22;11181;51.002;4.356;2022-12-20T09:26:35;11.60;99.90
22035;DHT22;11181;51.002;4.356;2022-12-20T09:29:03;11.60;99.90
22035;DHT22;11181;51.002;4.356;2022-12-20T09:31:31;11.50;99.90
22035;DHT22;11181;51.002;4.356;2022-12-20T09:33:59;11.60;99.90
22035;DHT22;11181;51.002;4.356;2022-12-20T09:36:27;11.70;99.90
22035;DHT22;11181;51.002;4.356;2022-12-20T09:38:55;11.70;99.90
22035;DHT22;11181;51.002;4.356;2022-12-20T09:41:28;11.70;99.90
22035;DHT22;11181;51.002;4.356;2022-12-20T09:43:56;11.80;99.90
22035;DHT22;11181;51.002;4.356;2022-12-20T09:46:24;11.70;99.90
22035;DHT22;11181;51.002;4.356;2022-12-20T09:48:53;11.80;99.90
22035;DHT22;11181;51.002;4.356;2022-12-20T09:51:41;11.90;99.90
22035;DHT22;11181;51.002;4.356;2022-12-20T09:54:18;11.90;99.90
22035;DHT22;11181;51.002;4.356;2022-12-20T09:56:55;11.90;99.90
22035;DHT22;11181;51.002;4.356;2022-12-20T09:59:23;11.90;99.90
22035;DHT22;11181;51.002;4.356;2022-12-20T10:01:50;11.90;99.90
22035;DHT22;11181;51.002;4.356;2022-12-20T10:04:22;11.90;99.90
22035;DHT22;11181;51.002;4.356;2022-12-20T10:07:08;11.90;99.90
22035;DHT22;11181;51.002;4.356;2022-12-20T10:09:47;11.80;99.90
22035;DHT22;11181;51.002;4.356;2022-12-20T10:12:24;11.80;99.90
22035;DHT22;11181;51.002;4.356;2022-12-20T10:15:03;11.80;99.90
22035;DHT22;11181;51.002;4.356;2022-12-20T10:17:41;11.80;99.90
22035;DHT22;11181;51.002;4.356;2022-12-20T10:20:26;11.90;99.90
22035;DHT22;11181;51.002;4.356;2022-12-20T10:22:58;11.90;99.90
22035;DHT22;11181;51.002;4.356;2022-12-20T10:25:30;12.00;99.90
22035;DHT22;11181;51.002;4.356;2022-12-20T10:28:00;12.00;99.90
22035;DHT22;11181;51.002;4.356;2022-12-20T10:30:30;11.90;99.90
22035;DHT22;11181;51.002;4.356;2022-12-20T10:32:58;12.00;99.90
22035;DHT22;11181;51.002;4.356;2022-12-20T10:35:29;11.90;99.90
22035;DHT22;11181;51.002;4.356;2022-12-20T10:38:00;12.00;99.90
22035;DHT22;11181;51.002;4.356;2022-12-20T10:40:30;11.90;99.90
22035;DHT22;11181;51.002;4.356;2022-12-20T10:42:58;12.00;99.90
22035;DHT22;11181;51.002;4.356;2022-12-20T10:45:31;11.90;99.90
22035;DHT22;11181;51.002;4.356;2022-12-20T10:48:01;12.00;99.90
22035;DHT22;11181;51.002;4.356;2022-12-20T10:50:30;11.90;99.90
22035;DHT22;11181;51.002;4.356;2022-12-20T10:53:19;11.90;99.90
22035;DHT22;11181;51.002;4.356;2022-12-20T10:55:47;12.00;99.90
22035;DHT22;11181;51.002;4.356;2022-12-20T10:58:16;11.90;99.90
22035;DHT22;11181;51.002;4.356;2022-12-20T11:00:44;12.00;99.90
22035;DHT22;11181;51.002;4.356;2022-12-20T11:03:15;12.00;99.90
22035;DHT22;11181;51.002;4.356;2022-12-20T11:05:56;12.00;99.90
22035;DHT22;11181;51.002;4.356;2022-12-20T11:08:26;12.00;99.90
22035;DHT22;11181;51.002;4.356;2022-12-20T11:11:12;11.90;99.90
22035;DHT22;11181;51.002;4.356;2022-12-20T11:13:41;11.90;99.90
22035;DHT22;11181;51.002;4.356;2022-12-20T11:16:22;12.00;99.90
22035;DHT22;11181;51.002;4.356;2022-12-20T11:18:55;12.10;99.90
22035;DHT22;11181;51.002;4.356;2022-12-20T11:21:32;12.10;99.90
22035;DHT22;11181;51.002;4.356;2022-12-20T11:24:09;12.20;99.90
22035;DHT22;11181;51.002;4.356;2022-12-20T11:26:52;12.10;99.90
22035;DHT22;11181;51.002;4.356;2022-12-20T11:29:32;12.00;99.90
22035;DHT22;11181;51.002;4.356;2022-12-20T11:32:07;11.80;99.90
22035;DHT22;11181;51.002;4.356;2022-12-20T11:34:44;11.90;99.90
22035;DHT22;11181;51.002;4.356;2022-12-20T11:37:20;11.90;99.90
22035;DHT22;11181;51.002;4.356;2022-12-20T11:40:19;12.00;99.90
22035;DHT22;11181;51.002;4.356;2022-12-20T11:43:01;12.00;99.90
22035;DHT22;11181;51.002;4.356;2022-12-20T11:45:38;11.80;99.90
22035;DHT22;11181;51.002;4.356;2022-12-20T11:48:29;11.80;99.90
22035;DHT22;11181;51.002;4.356;2022-12-20T11:51:02;11.80;99.90
22035;DHT22;11181;51.002;4.356;2022-12-20T11:53:35;11.80;99.90
22035;DHT22;11181;51.002;4.356;2022-12-20T11:56:07;11.70;99.90
22035;DHT22;11181;51.002;4.356;2022-12-20T11:58:46;11.70;99.90
22035;DHT22;11181;51.002;4.356;2022-12-20T12:01:17;11.70;99.90
22035;DHT22;11181;51.002;4.356;2022-12-20T12:04:02;11.60;99.90
22035;DHT22;11181;51.002;4.356;2022-12-20T12:06:33;11.60;99.90
22035;DHT22;11181;51.002;4.356;2022-12-20T12:09:11;11.50;99.90
22035;DHT22;11181;51.002;4.356;2022-12-20T12:11:42;11.60;99.90
22035;DHT22;11181;51.002;4.356;2022-12-20T12:14:15;11.60;99.90
22035;DHT22;11181;51.002;4.356;2022-12-20T12:16:47;11.60;99.90
22035;DHT22;11181;51.002;4.356;2022-12-20T12:19:16;11.50;99.90
22035;DHT22;11181;51.002;4.356;2022-12-20T12:21:46;11.60;99.90
22035;DHT22;11181;51.002;4.356;2022-12-20T12:24:22;11.60;99.90
22035;DHT22;11181;51.002;4.356;2022-12-20T12:26:51;11.60;99.90
22035;DHT22;11181;51.002;4.356;2022-12-20T12:29:19;11.60;99.90
22035;DHT22;11181;51.002;4.356;2022-12-20T12:31:51;11.70;99.90
22035;DHT22;11181;51.002;4.356;2022-12-20T12:34:33;11.70;99.90
22035;DHT22;11181;51.002;4.356;2022-12-20T12:37:35;11.70;99.90
22035;DHT22;11181;51.002;4.356;2022-12-20T12:40:29;11.70;99.90
22035;DHT22;11181;51.002;4.356;2022-12-20T12:45:57;11.70;99.90
22035;DHT22;11181;51.002;4.356;2022-12-20T12:48:29;11.70;99.90
22035;DHT22;11181;51.002;4.356;2022-12-20T12:50:59;11.70;99.90
22035;DHT22;11181;51.002;4.356;2022-12-20T12:53:31;11.70;99.90
22035;DHT22;11181;51.002;4.356;2022-12-20T13:02:25;11.70;99.90
22035;DHT22;11181;51.002;4.356;2022-12-20T13:04:54;11.70;99.90
22035;DHT22;11181;51.002;4.356;2022-12-20T13:07:27;11.80;99.90
22035;DHT22;11181;51.002;4.356;2022-12-20T13:09:57;11.80;99.90
22035;DHT22;11181;51.002;4.356;2022-12-20T13:12:56;11.60;99.90
22035;DHT22;11181;51.002;4.356;2022-12-20T13:15:47;11.60;99.90
22035;DHT22;11181;51.002;4.356;2022-12-20T13:18:25;11.50;99.90
22035;DHT22;11181;51.002;4.356;2022-12-20T13:29:57;11.40;99.90
22035;DHT22;11181;51.002;4.356;2022-12-20T13:35:31;11.40;99.90
22035;DHT22;11181;51.002;4.356;2022-12-20T13:38:47;11.50;99.90
22035;DHT22;11181;51.002;4.356;2022-12-20T13:41:24;11.60;99.90
22035;DHT22;11181;51.002;4.356;2022-12-20T13:43:56;11.60;99.90
22035;DHT22;11181;51.002;4.356;2022-12-20T13:46:35;11.40;99.90
22035;DHT22;11181;51.002;4.356;2022-12-20T13:49:10;11.30;99.90
22035;DHT22;11181;51.002;4.356;2022-12-20T13:51:38;11.40;99.90
22035;DHT22;11181;51.002;4.356;2022-12-20T13:54:07;11.40;99.90
22035;DHT22;11181;51.002;4.356;2022-12-20T13:56:43;11.40;99.90
22035;DHT22;11181;51.002;4.356;2022-12-20T13:59:20;11.50;99.90
22035;DHT22;11181;51.002;4.356;2022-12-20T14:01:56;11.50;99.90
22035;DHT22;11181;51.002;4.356;2022-12-20T14:04:37;11.50;99.90
22035;DHT22;11181;51.002;4.356;2022-12-20T14:07:12;11.60;99.90
22035;DHT22;11181;51.002;4.356;2022-12-20T14:09:43;11.60;99.90
22035;DHT22;11181;51.002;4.356;2022-12-20T14:12:12;11.60;99.90
22035;DHT22;11181;51.002;4.356;2022-12-20T14:14:43;11.50;99.90
22035;DHT22;11181;51.002;4.356;2022-12-20T14:17:24;11.60;99.90
22035;DHT22;11181;51.002;4.356;2022-12-20T14:20:14;11.60;99.90
22035;DHT22;11181;51.002;4.356;2022-12-20T14:22:45;11.50;99.90
22035;DHT22;11181;51.002;4.356;2022-12-20T14:25:16;11.50;99.90
22035;DHT22;11181;51.002;4.356;2022-12-20T14:27:44;11.50;99.90
22035;DHT22;11181;51.002;4.356;2022-12-20T14:30:34;11.50;99.90
22035;DHT22;11181;51.002;4.356;2022-12-20T14:33:03;11.50;99.90
22035;DHT22;11181;51.002;4.356;2022-12-20T14:35:30;11.40;99.90
22035;DHT22;11181;51.002;4.356;2022-12-20T14:37:59;11.40;99.90
22035;DHT22;11181;51.002;4.356;2022-12-20T14:40:27;11.50;99.90
22035;DHT22;11181;51.002;4.356;2022-12-20T14:42:55;11.50;99.90
22035;DHT22;11181;51.002;4.356;2022-12-20T14:45:24;11.60;99.90
22035;DHT22;11181;51.002;4.356;2022-12-20T14:48:03;11.50;99.90
22035;DHT22;11181;51.002;4.356;2022-12-20T14:50:33;11.40;99.90
22035;DHT22;11181;51.002;4.356;2022-12-20T14:53:01;11.50;99.90
22035;DHT22;11181;51.002;4.356;2022-12-20T14:55:34;11.60;99.90
22035;DHT22;11181;51.002;4.356;2022-12-20T14:58:05;11.60;99.90
22035;DHT22;11181;51.002;4.356;2022-12-20T15:00:55;11.70;99.90
22035;DHT22;11181;51.002;4.356;2022-12-20T15:03:24;11.50;99.90
22035;DHT22;11181;51.002;4.356;2022-12-20T15:05:53;11.60;99.90
22035;DHT22;11181;51.002;4.356;2022-12-20T15:08:24;11.70;99.90
22035;DHT22;11181;51.002;4.356;2022-12-20T15:10:55;11.70;99.90
22035;DHT22;11181;51.002;4.356;2022-12-20T15:13:27;11.70;99.90
22035;DHT22;11181;51.002;4.356;2022-12-20T15:15:57;11.50;99.90
22035;DHT22;11181;51.002;4.356;2022-12-20T15:18:26;11.60;99.90
22035;DHT22;11181;51.002;4.356;2022-12-20T15:21:00;11.70;99.90
22035;DHT22;11181;51.002;4.356;2022-12-20T15:23:28;11.70;99.90
22035;DHT22;11181;51.002;4.356;2022-12-20T15:25:55;11.70;99.90
22035;DHT22;11181;51.002;4.356;2022-12-20T15:28:24;11.60;99.90
22035;DHT22;11181;51.002;4.356;2022-12-20T15:30:52;11.70;99.90
22035;DHT22;11181;51.002;4.356;2022-12-20T15:33:22;11.80;99.90
22035;DHT22;11181;51.002;4.356;2022-12-20T15:35:52;11.70;99.90
22035;DHT22;11181;51.002;4.356;2022-12-20T15:38:21;11.70;99.90
22035;DHT22;11181;51.002;4.356;2022-12-20T15:40:51;11.70;99.90
22035;DHT22;11181;51.002;4.356;2022-12-20T15:43:21;11.80;99.90
22035;DHT22;11181;51.002;4.356;2022-12-20T15:45:50;11.80;99.90
22035;DHT22;11181;51.002;4.356;2022-12-20T15:48:19;11.80;99.90
22035;DHT22;11181;51.002;4.356;2022-12-20T15:50:53;11.80;99.90
22035;DHT22;11181;51.002;4.356;2022-12-20T15:53:24;11.80;99.90
22035;DHT22;11181;51.002;4.356;2022-12-20T15:55:53;11.80;99.90
22035;DHT22;11181;51.002;4.356;2022-12-20T15:58:21;11.90;99.90
22035;DHT22;11181;51.002;4.356;2022-12-20T16:00:48;11.80;99.90
22035;DHT22;11181;51.002;4.356;2022-12-20T16:03:17;11.80;99.90
22035;DHT22;11181;51.002;4.356;2022-12-20T16:05:46;11.70;99.90
22035;DHT22;11181;51.002;4.356;2022-12-20T16:08:14;11.80;99.90
22035;DHT22;11181;51.002;4.356;2022-12-20T16:10:43;11.80;99.90
22035;DHT22;11181;51.002;4.356;2022-12-20T16:13:13;11.80;99.90
22035;DHT22;11181;51.002;4.356;2022-12-20T16:15:41;11.80;99.90